Airfield :
LOGIN :

Register | Disclaimer

   EN    FR    IT 

 










Legend :    VFR   Marginal VFR   IFR   Intensive IFR   Very Intensive IFR
Visi :
Ceiling :
>= 8 km
>= 3000ft
5 to 8 km
1000 to 3000 ft
1500m to 5 km
500 to 1000 ft
800 to 1500m
200 to 500 ft
< 800m
< 200 ft
Symbols :   Thunderstorms  Fog  Heavy snow  Heavy precipitations  Wind > 20 kt
SIGMETs :     Misc.  Thunderstorms  Icing  Turbulence  Mountain Waves  Volcanic Ashes






- Airport Elevation : 220 ft
- IATA code : CWL


EGFF - Cardiff Rhoose

CURRENT METAR :
  • 120550Z AUTO 17013KT 9999 -RA FEW019 BKN024 BKN029 06/05 Q0994

EXPIRED METARs :
  • 120520Z AUTO 17013KT 9999 -RA BKN025 BKN030 OVC037 06/04 Q0995
  • 120450Z AUTO 18008KT 9999 -RA FEW016 SCT030 BKN039 06/04 Q0996
  • 120420Z AUTO 19009KT 9999 -RA BKN030 OVC040 06/04 Q0997
  • 120350Z AUTO 20010KT 9999 -RA BKN037 06/03 Q0998
  • 120320Z AUTO 21009KT 180V240 9999 -RA SCT029 BKN042 05/03 Q0999

TAF TAF EGFF
Valid from the 12 at 06:00 until the 13 at 06:00 UTC


120452Z 1206/1306 15012KT 9999 FEW015 SCT025
TEMPO 1206/1213 4000 RADZ BKN009
PROB40
TEMPO 1206/1211 16015G25KT
PROB30
TEMPO 1206/1213 1400 +RADZ
BECMG 1210/1214 27012KT
PROB30
TEMPO 1211/1218 27017G27KT
TEMPO 1213/1223 7000 SHRA BKN014
PROB30
TEMPO 1213/1218 4000 +SHRA SHGS BKN009 BKN015CB
PROB40
TEMPO 1219/1223 28025G35KT 3000 +SHRA SHGS BKN008 BKN012CB
TEMPO 1223/1306 29025G35KT
PROB30
TEMPO 1223/1306 7000 SHRA
ATIS : +44 1446 729 319



MET'MAP, your aeronautical weather chart ! - Copyright ORBIFLY December 2007 - Disclaimer

ORBIFLY MET'MAP TEAM :

Programming & Development : Alexandra Zaïnal
Concept & original design : Baudouin d'Aumeries
Assistance for programming : Marc-Olivier Méhu
Technical & hardware support : Manuel Goepfert

Contact : metmap@orbifly.com




SOURCES & CREDITS :

   NOAA